sensor_id;sensor_type;location;lat;lon;timestamp;P1;durP1;ratioP1;P2;durP2;ratioP2
35691;SDS011;26978;44.830;-0.674;2023-04-25T00:02:17;15.25;;;11.32;;
35691;SDS011;26978;44.830;-0.674;2023-04-25T00:04:42;17.98;;;11.88;;
35691;SDS011;26978;44.830;-0.674;2023-04-25T00:07:08;15.80;;;11.10;;
35691;SDS011;26978;44.830;-0.674;2023-04-25T00:09:34;18.27;;;10.95;;
35691;SDS011;26978;44.830;-0.674;2023-04-25T00:12:00;14.07;;;10.57;;
35691;SDS011;26978;44.830;-0.674;2023-04-25T00:14:26;17.58;;;12.10;;
35691;SDS011;26978;44.830;-0.674;2023-04-25T00:16:52;19.00;;;14.25;;
35691;SDS011;26978;44.830;-0.674;2023-04-25T00:19:19;18.17;;;12.43;;
35691;SDS011;26978;44.830;-0.674;2023-04-25T00:21:44;16.67;;;10.65;;
35691;SDS011;26978;44.830;-0.674;2023-04-25T00:24:11;15.60;;;9.55;;
35691;SDS011;26978;44.830;-0.674;2023-04-25T00:26:37;10.50;;;8.98;;
35691;SDS011;26978;44.830;-0.674;2023-04-25T00:29:03;19.20;;;9.27;;
35691;SDS011;26978;44.830;-0.674;2023-04-25T00:31:29;20.25;;;10.07;;
35691;SDS011;26978;44.830;-0.674;2023-04-25T00:33:55;16.73;;;10.95;;
35691;SDS011;26978;44.830;-0.674;2023-04-25T00:36:20;13.65;;;9.95;;
35691;SDS011;26978;44.830;-0.674;2023-04-25T00:38:46;17.65;;;9.50;;
35691;SDS011;26978;44.830;-0.674;2023-04-25T00:41:12;14.88;;;9.50;;
35691;SDS011;26978;44.830;-0.674;2023-04-25T00:43:38;14.05;;;8.70;;
35691;SDS011;26978;44.830;-0.674;2023-04-25T00:46:05;11.00;;;6.72;;
35691;SDS011;26978;44.830;-0.674;2023-04-25T00:48:31;10.65;;;7.30;;
35691;SDS011;26978;44.830;-0.674;2023-04-25T00:50:57;10.98;;;6.78;;
35691;SDS011;26978;44.830;-0.674;2023-04-25T00:53:24;13.07;;;7.53;;
35691;SDS011;26978;44.830;-0.674;2023-04-25T00:55:51;11.30;;;7.82;;
35691;SDS011;26978;44.830;-0.674;2023-04-25T00:58:17;14.25;;;8.68;;
35691;SDS011;26978;44.830;-0.674;2023-04-25T01:00:47;12.90;;;8.07;;
35691;SDS011;26978;44.830;-0.674;2023-04-25T01:03:14;11.13;;;8.10;;
35691;SDS011;26978;44.830;-0.674;2023-04-25T01:05:41;12.77;;;7.97;;
35691;SDS011;26978;44.830;-0.674;2023-04-25T01:08:07;15.02;;;9.02;;
35691;SDS011;26978;44.830;-0.674;2023-04-25T01:10:33;13.95;;;8.10;;
35691;SDS011;26978;44.830;-0.674;2023-04-25T01:12:58;14.25;;;9.27;;
35691;SDS011;26978;44.830;-0.674;2023-04-25T01:15:24;13.27;;;8.55;;
35691;SDS011;26978;44.830;-0.674;2023-04-25T01:17:50;15.70;;;8.45;;
35691;SDS011;26978;44.830;-0.674;2023-04-25T01:20:16;12.70;;;7.32;;
35691;SDS011;26978;44.830;-0.674;2023-04-25T01:22:42;13.82;;;8.07;;
35691;SDS011;26978;44.830;-0.674;2023-04-25T01:25:08;12.07;;;8.23;;
35691;SDS011;26978;44.830;-0.674;2023-04-25T01:27:35;15.90;;;8.25;;
35691;SDS011;26978;44.830;-0.674;2023-04-25T01:30:02;10.25;;;6.70;;
35691;SDS011;26978;44.830;-0.674;2023-04-25T01:32:28;11.23;;;6.60;;
35691;SDS011;26978;44.830;-0.674;2023-04-25T01:35:03;10.27;;;7.03;;
35691;SDS011;26978;44.830;-0.674;2023-04-25T01:37:34;11.88;;;6.00;;
35691;SDS011;26978;44.830;-0.674;2023-04-25T01:40:07;11.18;;;6.85;;
35691;SDS011;26978;44.830;-0.674;2023-04-25T01:42:39;7.28;;;5.68;;
35691;SDS011;26978;44.830;-0.674;2023-04-25T01:45:07;9.15;;;5.40;;
35691;SDS011;26978;44.830;-0.674;2023-04-25T01:47:34;11.23;;;5.55;;
35691;SDS011;26978;44.830;-0.674;2023-04-25T01:50:00;8.63;;;5.72;;
35691;SDS011;26978;44.830;-0.674;2023-04-25T01:52:27;9.15;;;5.82;;
35691;SDS011;26978;44.830;-0.674;2023-04-25T01:54:52;8.95;;;5.88;;
35691;SDS011;26978;44.830;-0.674;2023-04-25T01:57:19;12.25;;;5.85;;
35691;SDS011;26978;44.830;-0.674;2023-04-25T01:59:45;13.02;;;5.82;;
35691;SDS011;26978;44.830;-0.674;2023-04-25T02:02:11;12.63;;;6.80;;
35691;SDS011;26978;44.830;-0.674;2023-04-25T02:04:36;14.00;;;6.60;;
35691;SDS011;26978;44.830;-0.674;2023-04-25T02:07:03;12.98;;;7.10;;
35691;SDS011;26978;44.830;-0.674;2023-04-25T02:09:29;10.85;;;7.38;;
35691;SDS011;26978;44.830;-0.674;2023-04-25T02:11:54;16.33;;;9.05;;
35691;SDS011;26978;44.830;-0.674;2023-04-25T02:14:20;16.50;;;10.45;;
35691;SDS011;26978;44.830;-0.674;2023-04-25T02:16:45;27.00;;;13.35;;
35691;SDS011;26978;44.830;-0.674;2023-04-25T02:19:11;18.50;;;13.43;;
35691;SDS011;26978;44.830;-0.674;2023-04-25T02:21:37;21.63;;;12.93;;
35691;SDS011;26978;44.830;-0.674;2023-04-25T02:24:03;22.55;;;13.32;;
35691;SDS011;26978;44.830;-0.674;2023-04-25T02:26:29;21.17;;;13.10;;
35691;SDS011;26978;44.830;-0.674;2023-04-25T02:28:56;17.75;;;12.95;;
35691;SDS011;26978;44.830;-0.674;2023-04-25T02:31:21;21.70;;;12.02;;
35691;SDS011;26978;44.830;-0.674;2023-04-25T02:33:47;19.45;;;12.27;;
35691;SDS011;26978;44.830;-0.674;2023-04-25T02:36:13;20.25;;;12.93;;
35691;SDS011;26978;44.830;-0.674;2023-04-25T02:38:39;18.35;;;11.43;;
35691;SDS011;26978;44.830;-0.674;2023-04-25T02:41:05;23.15;;;11.48;;
35691;SDS011;26978;44.830;-0.674;2023-04-25T02:43:31;19.45;;;11.68;;
35691;SDS011;26978;44.830;-0.674;2023-04-25T02:45:57;21.45;;;12.23;;
35691;SDS011;26978;44.830;-0.674;2023-04-25T02:48:22;20.48;;;12.90;;
35691;SDS011;26978;44.830;-0.674;2023-04-25T02:50:48;17.55;;;11.55;;
35691;SDS011;26978;44.830;-0.674;2023-04-25T02:53:13;21.42;;;11.95;;
35691;SDS011;26978;44.830;-0.674;2023-04-25T02:55:40;20.75;;;13.30;;
35691;SDS011;26978;44.830;-0.674;2023-04-25T02:58:05;18.48;;;14.18;;
35691;SDS011;26978;44.830;-0.674;2023-04-25T03:00:31;21.08;;;13.82;;
35691;SDS011;26978;44.830;-0.674;2023-04-25T03:02:57;21.92;;;13.82;;
35691;SDS011;26978;44.830;-0.674;2023-04-25T03:05:22;18.50;;;11.95;;
35691;SDS011;26978;44.830;-0.674;2023-04-25T03:07:48;14.50;;;10.25;;
35691;SDS011;26978;44.830;-0.674;2023-04-25T03:10:14;13.60;;;9.73;;
35691;SDS011;26978;44.830;-0.674;2023-04-25T03:12:39;14.10;;;8.82;;
35691;SDS011;26978;44.830;-0.674;2023-04-25T03:15:05;9.68;;;7.38;;
35691;SDS011;26978;44.830;-0.674;2023-04-25T03:17:31;11.15;;;8.45;;
35691;SDS011;26978;44.830;-0.674;2023-04-25T03:19:57;13.32;;;9.50;;
35691;SDS011;26978;44.830;-0.674;2023-04-25T03:22:23;15.90;;;10.27;;
35691;SDS011;26978;44.830;-0.674;2023-04-25T03:24:49;13.85;;;10.57;;
35691;SDS011;26978;44.830;-0.674;2023-04-25T03:27:15;13.52;;;10.68;;
35691;SDS011;26978;44.830;-0.674;2023-04-25T03:29:41;12.73;;;10.88;;
35691;SDS011;26978;44.830;-0.674;2023-04-25T03:32:07;16.10;;;10.15;;
35691;SDS011;26978;44.830;-0.674;2023-04-25T03:34:32;15.27;;;10.18;;
35691;SDS011;26978;44.830;-0.674;2023-04-25T03:36:58;14.23;;;10.73;;
35691;SDS011;26978;44.830;-0.674;2023-04-25T03:39:25;11.77;;;9.70;;
35691;SDS011;26978;44.830;-0.674;2023-04-25T03:41:50;11.85;;;10.05;;
35691;SDS011;26978;44.830;-0.674;2023-04-25T03:44:16;9.35;;;8.23;;
35691;SDS011;26978;44.830;-0.674;2023-04-25T03:46:45;7.72;;;6.93;;
35691;SDS011;26978;44.830;-0.674;2023-04-25T03:49:13;11.77;;;7.28;;
35691;SDS011;26978;44.830;-0.674;2023-04-25T03:51:56;9.77;;;7.85;;
35691;SDS011;26978;44.830;-0.674;2023-04-25T03:54:45;11.98;;;7.47;;
35691;SDS011;26978;44.830;-0.674;2023-04-25T03:57:19;7.50;;;6.25;;
35691;SDS011;26978;44.830;-0.674;2023-04-25T03:59:44;6.35;;;5.63;;
35691;SDS011;26978;44.830;-0.674;2023-04-25T04:02:15;6.90;;;6.07;;
35691;SDS011;26978;44.830;-0.674;2023-04-25T04:04:42;6.55;;;5.47;;
35691;SDS011;26978;44.830;-0.674;2023-04-25T04:07:16;7.07;;;5.95;;
35691;SDS011;26978;44.830;-0.674;2023-04-25T04:09:42;8.23;;;5.78;;
35691;SDS011;26978;44.830;-0.674;2023-04-25T04:12:07;6.10;;;5.50;;
35691;SDS011;26978;44.830;-0.674;2023-04-25T04:14:33;6.43;;;4.57;;
35691;SDS011;26978;44.830;-0.674;2023-04-25T04:17:01;5.10;;;3.88;;
35691;SDS011;26978;44.830;-0.674;2023-04-25T04:19:27;4.97;;;4.18;;
35691;SDS011;26978;44.830;-0.674;2023-04-25T04:21:52;6.60;;;4.00;;
35691;SDS011;26978;44.830;-0.674;2023-04-25T04:24:18;4.45;;;3.10;;
35691;SDS011;26978;44.830;-0.674;2023-04-25T04:26:44;4.63;;;3.63;;
35691;SDS011;26978;44.830;-0.674;2023-04-25T04:29:10;4.45;;;3.50;;
35691;SDS011;26978;44.830;-0.674;2023-04-25T04:31:36;4.57;;;3.60;;
35691;SDS011;26978;44.830;-0.674;2023-04-25T04:34:02;4.65;;;4.07;;
35691;SDS011;26978;44.830;-0.674;2023-04-25T04:36:28;5.75;;;4.30;;
35691;SDS011;26978;44.830;-0.674;2023-04-25T04:38:54;5.60;;;4.53;;
35691;SDS011;26978;44.830;-0.674;2023-04-25T04:41:21;5.00;;;4.50;;
35691;SDS011;26978;44.830;-0.674;2023-04-25T04:43:47;6.63;;;4.43;;
35691;SDS011;26978;44.830;-0.674;2023-04-25T04:46:13;6.97;;;4.70;;
35691;SDS011;26978;44.830;-0.674;2023-04-25T04:48:39;8.48;;;4.35;;
35691;SDS011;26978;44.830;-0.674;2023-04-25T04:51:05;5.45;;;4.30;;
35691;SDS011;26978;44.830;-0.674;2023-04-25T04:53:31;6.35;;;4.75;;
35691;SDS011;26978;44.830;-0.674;2023-04-25T04:55:57;6.03;;;5.30;;
35691;SDS011;26978;44.830;-0.674;2023-04-25T04:58:23;6.60;;;5.50;;
35691;SDS011;26978;44.830;-0.674;2023-04-25T05:00:48;8.27;;;6.20;;
35691;SDS011;26978;44.830;-0.674;2023-04-25T05:03:14;8.95;;;6.35;;
35691;SDS011;26978;44.830;-0.674;2023-04-25T05:05:40;11.23;;;6.78;;
35691;SDS011;26978;44.830;-0.674;2023-04-25T05:08:06;9.05;;;7.28;;
35691;SDS011;26978;44.830;-0.674;2023-04-25T05:10:32;9.55;;;7.15;;
35691;SDS011;26978;44.830;-0.674;2023-04-25T05:12:59;11.15;;;7.50;;
35691;SDS011;26978;44.830;-0.674;2023-04-25T05:15:25;9.98;;;7.78;;
35691;SDS011;26978;44.830;-0.674;2023-04-25T05:17:50;11.13;;;8.23;;
35691;SDS011;26978;44.830;-0.674;2023-04-25T05:20:16;9.77;;;7.45;;
35691;SDS011;26978;44.830;-0.674;2023-04-25T05:22:43;11.45;;;8.23;;
35691;SDS011;26978;44.830;-0.674;2023-04-25T05:25:09;9.95;;;8.07;;
35691;SDS011;26978;44.830;-0.674;2023-04-25T05:27:35;14.98;;;8.50;;
35691;SDS011;26978;44.830;-0.674;2023-04-25T05:30:01;11.25;;;8.70;;
35691;SDS011;26978;44.830;-0.674;2023-04-25T05:32:26;10.15;;;8.02;;
35691;SDS011;26978;44.830;-0.674;2023-04-25T05:34:52;11.85;;;8.18;;
35691;SDS011;26978;44.830;-0.674;2023-04-25T05:37:18;10.73;;;8.35;;
35691;SDS011;26978;44.830;-0.674;2023-04-25T05:39:43;12.40;;;9.07;;
35691;SDS011;26978;44.830;-0.674;2023-04-25T05:42:09;12.82;;;8.32;;
35691;SDS011;26978;44.830;-0.674;2023-04-25T05:44:35;10.85;;;8.50;;
35691;SDS011;26978;44.830;-0.674;2023-04-25T05:47:01;11.02;;;8.85;;
35691;SDS011;26978;44.830;-0.674;2023-04-25T05:49:26;11.23;;;8.70;;
35691;SDS011;26978;44.830;-0.674;2023-04-25T05:51:52;13.48;;;8.73;;
35691;SDS011;26978;44.830;-0.674;2023-04-25T05:54:17;13.57;;;9.05;;
35691;SDS011;26978;44.830;-0.674;2023-04-25T05:56:43;13.65;;;9.80;;
35691;SDS011;26978;44.830;-0.674;2023-04-25T05:59:09;14.20;;;9.80;;
35691;SDS011;26978;44.830;-0.674;2023-04-25T06:01:34;13.30;;;9.75;;
35691;SDS011;26978;44.830;-0.674;2023-04-25T06:04:00;12.20;;;8.90;;
35691;SDS011;26978;44.830;-0.674;2023-04-25T06:06:26;11.55;;;7.13;;
35691;SDS011;26978;44.830;-0.674;2023-04-25T06:08:52;9.77;;;6.57;;
35691;SDS011;26978;44.830;-0.674;2023-04-25T06:11:18;7.40;;;6.38;;
35691;SDS011;26978;44.830;-0.674;2023-04-25T06:13:43;9.82;;;6.53;;
35691;SDS011;26978;44.830;-0.674;2023-04-25T06:16:09;7.88;;;5.85;;
35691;SDS011;26978;44.830;-0.674;2023-04-25T06:18:35;8.27;;;5.35;;
35691;SDS011;26978;44.830;-0.674;2023-04-25T06:21:00;10.10;;;6.20;;
35691;SDS011;26978;44.830;-0.674;2023-04-25T06:23:26;9.63;;;5.78;;
35691;SDS011;26978;44.830;-0.674;2023-04-25T06:25:52;9.15;;;5.65;;
35691;SDS011;26978;44.830;-0.674;2023-04-25T06:28:17;7.35;;;5.13;;
35691;SDS011;26978;44.830;-0.674;2023-04-25T06:30:44;6.95;;;5.35;;
35691;SDS011;26978;44.830;-0.674;2023-04-25T06:33:10;10.30;;;5.93;;
35691;SDS011;26978;44.830;-0.674;2023-04-25T06:35:35;9.60;;;5.47;;
35691;SDS011;26978;44.830;-0.674;2023-04-25T06:38:01;8.75;;;5.32;;
35691;SDS011;26978;44.830;-0.674;2023-04-25T06:40:26;9.73;;;5.55;;
35691;SDS011;26978;44.830;-0.674;2023-04-25T06:42:52;8.75;;;5.60;;
35691;SDS011;26978;44.830;-0.674;2023-04-25T06:45:18;11.50;;;6.40;;
35691;SDS011;26978;44.830;-0.674;2023-04-25T06:47:43;9.48;;;6.00;;
35691;SDS011;26978;44.830;-0.674;2023-04-25T06:50:09;13.10;;;6.70;;
35691;SDS011;26978;44.830;-0.674;2023-04-25T06:52:35;8.65;;;5.65;;
35691;SDS011;26978;44.830;-0.674;2023-04-25T06:55:01;10.75;;;6.82;;
35691;SDS011;26978;44.830;-0.674;2023-04-25T06:57:27;9.07;;;6.95;;
35691;SDS011;26978;44.830;-0.674;2023-04-25T06:59:53;11.13;;;6.68;;
35691;SDS011;26978;44.830;-0.674;2023-04-25T07:02:18;14.27;;;6.78;;
35691;SDS011;26978;44.830;-0.674;2023-04-25T07:04:46;12.63;;;6.72;;
35691;SDS011;26978;44.830;-0.674;2023-04-25T07:07:11;9.07;;;6.85;;
35691;SDS011;26978;44.830;-0.674;2023-04-25T07:09:37;9.23;;;6.88;;
35691;SDS011;26978;44.830;-0.674;2023-04-25T07:12:03;10.35;;;6.40;;
35691;SDS011;26978;44.830;-0.674;2023-04-25T07:14:28;9.18;;;6.13;;
35691;SDS011;26978;44.830;-0.674;2023-04-25T07:16:54;13.32;;;7.00;;
35691;SDS011;26978;44.830;-0.674;2023-04-25T07:19:22;9.77;;;6.13;;
35691;SDS011;26978;44.830;-0.674;2023-04-25T07:21:51;8.82;;;5.63;;
35691;SDS011;26978;44.830;-0.674;2023-04-25T07:24:17;7.90;;;6.38;;
35691;SDS011;26978;44.830;-0.674;2023-04-25T07:26:43;11.35;;;6.15;;
35691;SDS011;26978;44.830;-0.674;2023-04-25T07:29:09;12.63;;;6.43;;
35691;SDS011;26978;44.830;-0.674;2023-04-25T07:31:35;8.73;;;6.03;;
35691;SDS011;26978;44.830;-0.674;2023-04-25T07:34:01;10.75;;;6.18;;
35691;SDS011;26978;44.830;-0.674;2023-04-25T07:36:27;12.20;;;6.30;;
35691;SDS011;26978;44.830;-0.674;2023-04-25T07:38:52;8.07;;;5.25;;
35691;SDS011;26978;44.830;-0.674;2023-04-25T07:41:18;9.82;;;5.15;;
35691;SDS011;26978;44.830;-0.674;2023-04-25T07:43:43;11.73;;;6.32;;
35691;SDS011;26978;44.830;-0.674;2023-04-25T07:46:10;8.25;;;5.40;;
35691;SDS011;26978;44.830;-0.674;2023-04-25T07:48:35;10.27;;;6.00;;
35691;SDS011;26978;44.830;-0.674;2023-04-25T07:51:01;10.48;;;5.50;;
35691;SDS011;26978;44.830;-0.674;2023-04-25T07:53:27;6.65;;;4.88;;
35691;SDS011;26978;44.830;-0.674;2023-04-25T07:55:53;10.13;;;5.30;;
35691;SDS011;26978;44.830;-0.674;2023-04-25T07:58:19;11.02;;;5.95;;
35691;SDS011;26978;44.830;-0.674;2023-04-25T08:00:46;10.77;;;5.68;;
35691;SDS011;26978;44.830;-0.674;2023-04-25T08:03:15;9.68;;;6.63;;
35691;SDS011;26978;44.830;-0.674;2023-04-25T08:05:41;7.22;;;6.20;;
35691;SDS011;26978;44.830;-0.674;2023-04-25T08:08:10;9.57;;;5.10;;
35691;SDS011;26978;44.830;-0.674;2023-04-25T08:10:36;7.93;;;4.88;;
35691;SDS011;26978;44.830;-0.674;2023-04-25T08:13:01;6.53;;;4.50;;
35691;SDS011;26978;44.830;-0.674;2023-04-25T08:15:27;8.38;;;4.55;;
35691;SDS011;26978;44.830;-0.674;2023-04-25T08:17:53;11.73;;;4.20;;
35691;SDS011;26978;44.830;-0.674;2023-04-25T08:20:19;6.60;;;4.85;;
35691;SDS011;26978;44.830;-0.674;2023-04-25T08:22:45;7.82;;;4.95;;
35691;SDS011;26978;44.830;-0.674;2023-04-25T08:25:13;7.68;;;5.63;;
35691;SDS011;26978;44.830;-0.674;2023-04-25T08:27:39;6.40;;;5.35;;
35691;SDS011;26978;44.830;-0.674;2023-04-25T08:30:05;9.52;;;5.60;;
35691;SDS011;26978;44.830;-0.674;2023-04-25T08:32:33;11.30;;;5.35;;
35691;SDS011;26978;44.830;-0.674;2023-04-25T08:34:59;7.13;;;5.03;;
35691;SDS011;26978;44.830;-0.674;2023-04-25T08:37:24;10.95;;;4.75;;
35691;SDS011;26978;44.830;-0.674;2023-04-25T08:39:50;9.13;;;4.22;;
35691;SDS011;26978;44.830;-0.674;2023-04-25T08:42:19;7.43;;;4.13;;
35691;SDS011;26978;44.830;-0.674;2023-04-25T08:44:46;7.03;;;4.20;;
35691;SDS011;26978;44.830;-0.674;2023-04-25T08:47:14;8.68;;;5.00;;
35691;SDS011;26978;44.830;-0.674;2023-04-25T08:49:39;9.07;;;5.47;;
35691;SDS011;26978;44.830;-0.674;2023-04-25T08:52:10;10.23;;;5.15;;
35691;SDS011;26978;44.830;-0.674;2023-04-25T08:54:41;8.52;;;5.38;;
35691;SDS011;26978;44.830;-0.674;2023-04-25T08:57:09;10.55;;;5.57;;
35691;SDS011;26978;44.830;-0.674;2023-04-25T08:59:36;9.93;;;4.40;;
35691;SDS011;26978;44.830;-0.674;2023-04-25T09:02:03;8.65;;;4.60;;
35691;SDS011;26978;44.830;-0.674;2023-04-25T09:04:32;6.60;;;4.50;;
35691;SDS011;26978;44.830;-0.674;2023-04-25T09:06:58;7.30;;;4.90;;
35691;SDS011;26978;44.830;-0.674;2023-04-25T09:09:23;4.95;;;4.00;;
35691;SDS011;26978;44.830;-0.674;2023-04-25T09:11:49;6.13;;;3.88;;
35691;SDS011;26978;44.830;-0.674;2023-04-25T09:14:19;7.93;;;3.95;;
35691;SDS011;26978;44.830;-0.674;2023-04-25T09:19:21;7.95;;;3.88;;
35691;SDS011;26978;44.830;-0.674;2023-04-25T09:21:51;11.55;;;4.22;;
35691;SDS011;26978;44.830;-0.674;2023-04-25T09:27:09;5.60;;;3.75;;
35691;SDS011;26978;44.830;-0.674;2023-04-25T09:29:36;7.37;;;4.17;;
35691;SDS011;26978;44.830;-0.674;2023-04-25T09:32:22;8.80;;;3.78;;
35691;SDS011;26978;44.830;-0.674;2023-04-25T09:34:50;6.38;;;4.05;;
35691;SDS011;26978;44.830;-0.674;2023-04-25T09:37:27;6.57;;;3.53;;
35691;SDS011;26978;44.830;-0.674;2023-04-25T09:39:55;5.40;;;4.28;;
35691;SDS011;26978;44.830;-0.674;2023-04-25T09:42:24;9.90;;;4.38;;
35691;SDS011;26978;44.830;-0.674;2023-04-25T09:44:55;6.45;;;4.55;;
35691;SDS011;26978;44.830;-0.674;2023-04-25T09:47:22;6.88;;;3.72;;
35691;SDS011;26978;44.830;-0.674;2023-04-25T09:49:49;6.10;;;3.72;;
35691;SDS011;26978;44.830;-0.674;2023-04-25T09:52:20;4.97;;;3.63;;
35691;SDS011;26978;44.830;-0.674;2023-04-25T09:54:48;7.50;;;4.22;;
35691;SDS011;26978;44.830;-0.674;2023-04-25T09:57:18;8.05;;;3.20;;
35691;SDS011;26978;44.830;-0.674;2023-04-25T09:59:46;7.00;;;3.90;;
35691;SDS011;26978;44.830;-0.674;2023-04-25T10:02:17;6.47;;;3.65;;
35691;SDS011;26978;44.830;-0.674;2023-04-25T10:04:51;6.50;;;4.30;;
35691;SDS011;26978;44.830;-0.674;2023-04-25T10:07:20;7.68;;;4.32;;
35691;SDS011;26978;44.830;-0.674;2023-04-25T10:09:54;9.43;;;4.18;;
35691;SDS011;26978;44.830;-0.674;2023-04-25T10:12:28;7.75;;;4.72;;
35691;SDS011;26978;44.830;-0.674;2023-04-25T10:14:56;7.20;;;4.28;;
35691;SDS011;26978;44.830;-0.674;2023-04-25T10:17:23;5.05;;;3.95;;
35691;SDS011;26978;44.830;-0.674;2023-04-25T10:19:49;7.72;;;4.63;;
35691;SDS011;26978;44.830;-0.674;2023-04-25T10:25:02;9.57;;;5.07;;
35691;SDS011;26978;44.830;-0.674;2023-04-25T10:27:29;7.10;;;4.70;;
35691;SDS011;26978;44.830;-0.674;2023-04-25T10:30:07;8.85;;;5.57;;
35691;SDS011;26978;44.830;-0.674;2023-04-25T10:32:41;7.97;;;4.80;;
35691;SDS011;26978;44.830;-0.674;2023-04-25T10:35:11;11.80;;;4.93;;
35691;SDS011;26978;44.830;-0.674;2023-04-25T10:37:37;8.98;;;4.63;;
35691;SDS011;26978;44.830;-0.674;2023-04-25T10:40:09;8.55;;;4.50;;
35691;SDS011;26978;44.830;-0.674;2023-04-25T10:42:36;10.75;;;4.68;;
35691;SDS011;26978;44.830;-0.674;2023-04-25T10:45:02;6.78;;;4.10;;
35691;SDS011;26978;44.830;-0.674;2023-04-25T10:47:36;10.93;;;4.97;;
35691;SDS011;26978;44.830;-0.674;2023-04-25T10:50:09;6.32;;;4.30;;
35691;SDS011;26978;44.830;-0.674;2023-04-25T10:52:40;9.63;;;5.15;;
35691;SDS011;26978;44.830;-0.674;2023-04-25T10:55:06;10.20;;;4.75;;
35691;SDS011;26978;44.830;-0.674;2023-04-25T10:57:36;8.50;;;4.72;;
35691;SDS011;26978;44.830;-0.674;2023-04-25T11:00:17;8.30;;;4.15;;
35691;SDS011;26978;44.830;-0.674;2023-04-25T11:10:24;5.80;;;3.92;;
35691;SDS011;26978;44.830;-0.674;2023-04-25T11:12:51;6.00;;;3.92;;
35691;SDS011;26978;44.830;-0.674;2023-04-25T11:15:16;6.22;;;4.07;;
35691;SDS011;26978;44.830;-0.674;2023-04-25T11:17:42;11.48;;;4.40;;
35691;SDS011;26978;44.830;-0.674;2023-04-25T11:20:09;8.02;;;4.72;;
35691;SDS011;26978;44.830;-0.674;2023-04-25T11:22:36;6.15;;;3.53;;
35691;SDS011;26978;44.830;-0.674;2023-04-25T11:25:05;6.47;;;3.53;;
35691;SDS011;26978;44.830;-0.674;2023-04-25T11:27:32;4.55;;;3.40;;
35691;SDS011;26978;44.830;-0.674;2023-04-25T11:29:58;7.93;;;3.60;;
35691;SDS011;26978;44.830;-0.674;2023-04-25T11:32:24;5.95;;;3.03;;
35691;SDS011;26978;44.830;-0.674;2023-04-25T11:34:49;7.38;;;3.65;;
35691;SDS011;26978;44.830;-0.674;2023-04-25T11:37:17;5.15;;;2.90;;
35691;SDS011;26978;44.830;-0.674;2023-04-25T11:39:43;4.75;;;3.28;;
35691;SDS011;26978;44.830;-0.674;2023-04-25T11:42:10;6.90;;;3.25;;
35691;SDS011;26978;44.830;-0.674;2023-04-25T11:44:37;6.03;;;3.13;;
35691;SDS011;26978;44.830;-0.674;2023-04-25T11:47:04;7.57;;;3.42;;
35691;SDS011;26978;44.830;-0.674;2023-04-25T11:49:30;6.63;;;3.78;;
35691;SDS011;26978;44.830;-0.674;2023-04-25T11:51:57;5.28;;;3.08;;
35691;SDS011;26978;44.830;-0.674;2023-04-25T11:54:23;5.97;;;3.55;;
35691;SDS011;26978;44.830;-0.674;2023-04-25T11:56:48;6.10;;;3.20;;
35691;SDS011;26978;44.830;-0.674;2023-04-25T11:59:14;3.92;;;3.10;;
35691;SDS011;26978;44.830;-0.674;2023-04-25T12:01:47;7.78;;;3.75;;
35691;SDS011;26978;44.830;-0.674;2023-04-25T12:04:14;7.65;;;3.38;;
35691;SDS011;26978;44.830;-0.674;2023-04-25T12:06:42;6.35;;;2.67;;
35691;SDS011;26978;44.830;-0.674;2023-04-25T12:09:11;5.68;;;3.38;;
35691;SDS011;26978;44.830;-0.674;2023-04-25T12:11:44;4.40;;;3.13;;
35691;SDS011;26978;44.830;-0.674;2023-04-25T12:14:26;3.65;;;2.80;;
35691;SDS011;26978;44.830;-0.674;2023-04-25T12:16:56;9.48;;;3.10;;
35691;SDS011;26978;44.830;-0.674;2023-04-25T12:19:24;4.93;;;3.38;;
35691;SDS011;26978;44.830;-0.674;2023-04-25T12:21:50;6.38;;;3.58;;
35691;SDS011;26978;44.830;-0.674;2023-04-25T12:24:17;7.20;;;3.10;;
35691;SDS011;26978;44.830;-0.674;2023-04-25T12:26:52;5.05;;;3.08;;
35691;SDS011;26978;44.830;-0.674;2023-04-25T12:31:46;4.63;;;2.42;;
35691;SDS011;26978;44.830;-0.674;2023-04-25T12:34:12;4.13;;;2.50;;
35691;SDS011;26978;44.830;-0.674;2023-04-25T12:36:37;4.50;;;2.63;;
35691;SDS011;26978;44.830;-0.674;2023-04-25T12:39:04;3.75;;;2.78;;
35691;SDS011;26978;44.830;-0.674;2023-04-25T12:41:30;5.82;;;2.65;;
35691;SDS011;26978;44.830;-0.674;2023-04-25T12:43:55;11.77;;;3.10;;
35691;SDS011;26978;44.830;-0.674;2023-04-25T12:46:21;6.45;;;3.05;;
35691;SDS011;26978;44.830;-0.674;2023-04-25T12:48:48;6.05;;;3.15;;
35691;SDS011;26978;44.830;-0.674;2023-04-25T12:51:14;6.20;;;2.83;;
35691;SDS011;26978;44.830;-0.674;2023-04-25T12:53:40;4.93;;;2.88;;
35691;SDS011;26978;44.830;-0.674;2023-04-25T12:56:06;5.55;;;3.00;;
35691;SDS011;26978;44.830;-0.674;2023-04-25T12:58:32;7.35;;;2.88;;
35691;SDS011;26978;44.830;-0.674;2023-04-25T13:00:58;5.00;;;2.60;;
35691;SDS011;26978;44.830;-0.674;2023-04-25T13:03:24;4.65;;;3.13;;
35691;SDS011;26978;44.830;-0.674;2023-04-25T13:05:50;4.60;;;2.85;;
35691;SDS011;26978;44.830;-0.674;2023-04-25T13:08:17;4.65;;;2.72;;
35691;SDS011;26978;44.830;-0.674;2023-04-25T13:10:44;7.15;;;3.00;;
35691;SDS011;26978;44.830;-0.674;2023-04-25T13:13:09;4.13;;;2.67;;
35691;SDS011;26978;44.830;-0.674;2023-04-25T13:15:35;6.80;;;2.55;;
35691;SDS011;26978;44.830;-0.674;2023-04-25T13:18:01;6.45;;;3.00;;
35691;SDS011;26978;44.830;-0.674;2023-04-25T13:20:28;6.57;;;2.50;;
35691;SDS011;26978;44.830;-0.674;2023-04-25T13:22:53;5.53;;;2.67;;
35691;SDS011;26978;44.830;-0.674;2023-04-25T13:25:20;9.02;;;2.90;;
35691;SDS011;26978;44.830;-0.674;2023-04-25T13:27:46;10.00;;;2.72;;
35691;SDS011;26978;44.830;-0.674;2023-04-25T13:30:12;3.25;;;2.60;;
35691;SDS011;26978;44.830;-0.674;2023-04-25T13:32:39;4.82;;;2.50;;
35691;SDS011;26978;44.830;-0.674;2023-04-25T13:35:06;5.43;;;2.38;;
35691;SDS011;26978;44.830;-0.674;2023-04-25T13:37:33;4.00;;;2.50;;
35691;SDS011;26978;44.830;-0.674;2023-04-25T13:40:00;7.53;;;2.80;;
35691;SDS011;26978;44.830;-0.674;2023-04-25T13:42:33;4.95;;;2.80;;
35691;SDS011;26978;44.830;-0.674;2023-04-25T13:44:59;5.03;;;2.38;;
35691;SDS011;26978;44.830;-0.674;2023-04-25T13:47:24;3.75;;;2.67;;
35691;SDS011;26978;44.830;-0.674;2023-04-25T13:49:50;4.50;;;2.40;;
35691;SDS011;26978;44.830;-0.674;2023-04-25T13:52:16;4.75;;;2.55;;
35691;SDS011;26978;44.830;-0.674;2023-04-25T13:54:42;6.55;;;3.00;;
35691;SDS011;26978;44.830;-0.674;2023-04-25T13:57:08;5.28;;;2.88;;
35691;SDS011;26978;44.830;-0.674;2023-04-25T13:59:33;6.00;;;3.38;;
35691;SDS011;26978;44.830;-0.674;2023-04-25T14:01:59;5.38;;;3.03;;
35691;SDS011;26978;44.830;-0.674;2023-04-25T14:04:25;6.15;;;3.15;;
35691;SDS011;26978;44.830;-0.674;2023-04-25T14:06:51;6.75;;;2.53;;
35691;SDS011;26978;44.830;-0.674;2023-04-25T14:09:17;7.78;;;3.13;;
35691;SDS011;26978;44.830;-0.674;2023-04-25T14:11:45;4.97;;;3.00;;
35691;SDS011;26978;44.830;-0.674;2023-04-25T14:14:10;7.38;;;3.40;;
35691;SDS011;26978;44.830;-0.674;2023-04-25T14:16:37;9.23;;;3.40;;
35691;SDS011;26978;44.830;-0.674;2023-04-25T14:19:03;6.93;;;2.65;;
35691;SDS011;26978;44.830;-0.674;2023-04-25T14:21:28;4.43;;;3.10;;
35691;SDS011;26978;44.830;-0.674;2023-04-25T14:23:57;6.90;;;3.10;;
35691;SDS011;26978;44.830;-0.674;2023-04-25T14:26:23;5.75;;;3.20;;
35691;SDS011;26978;44.830;-0.674;2023-04-25T14:28:49;5.82;;;2.80;;
35691;SDS011;26978;44.830;-0.674;2023-04-25T14:31:16;4.88;;;2.90;;
35691;SDS011;26978;44.830;-0.674;2023-04-25T14:33:41;4.63;;;2.70;;
35691;SDS011;26978;44.830;-0.674;2023-04-25T14:36:08;5.60;;;3.33;;
35691;SDS011;26978;44.830;-0.674;2023-04-25T14:38:34;4.78;;;3.00;;
35691;SDS011;26978;44.830;-0.674;2023-04-25T14:40:59;3.25;;;2.35;;
35691;SDS011;26978;44.830;-0.674;2023-04-25T14:43:25;4.68;;;2.78;;
35691;SDS011;26978;44.830;-0.674;2023-04-25T14:45:51;5.25;;;2.78;;